sensor_id;sensor_type;location;lat;lon;timestamp;pressure;altitude;pressure_sealevel;temperature;humidity
48200;BME280;33990;44.602;10.976;2023-02-17T00:01:31;102441.31;;;20.41;38.27
48200;BME280;33990;44.602;10.976;2023-02-17T00:04:00;102437.75;;;20.40;38.39
48200;BME280;33990;44.602;10.976;2023-02-17T00:06:29;102433.34;;;20.39;38.15
48200;BME280;33990;44.602;10.976;2023-02-17T00:08:57;102444.97;;;20.40;37.96
48200;BME280;33990;44.602;10.976;2023-02-17T00:11:26;102448.63;;;20.39;38.34
48200;BME280;33990;44.602;10.976;2023-02-17T00:13:54;102453.03;;;20.40;38.60
48200;BME280;33990;44.602;10.976;2023-02-17T00:16:24;102451.31;;;20.39;38.29
48200;BME280;33990;44.602;10.976;2023-02-17T00:19:00;102449.59;;;20.38;38.34
48200;BME280;33990;44.602;10.976;2023-02-17T00:21:30;102455.84;;;20.38;38.24
48200;BME280;33990;44.602;10.976;2023-02-17T00:23:57;102446.03;;;20.37;38.25
48200;BME280;33990;44.602;10.976;2023-02-17T00:26:25;102447.00;;;20.36;38.15
48200;BME280;33990;44.602;10.976;2023-02-17T00:28:53;102448.72;;;20.37;38.17
48200;BME280;33990;44.602;10.976;2023-02-17T00:31:21;102443.44;;;20.36;38.25
48200;BME280;33990;44.602;10.976;2023-02-17T00:33:53;102460.44;;;20.36;38.30
48200;BME280;33990;44.602;10.976;2023-02-17T00:36:22;102459.59;;;20.36;38.25
48200;BME280;33990;44.602;10.976;2023-02-17T00:38:49;102462.28;;;20.36;38.25
48200;BME280;33990;44.602;10.976;2023-02-17T00:41:18;102461.41;;;20.35;38.23
48200;BME280;33990;44.602;10.976;2023-02-17T00:43:46;102463.25;;;20.35;38.20
48200;BME280;33990;44.602;10.976;2023-02-17T00:46:15;102456.16;;;20.34;38.29
48200;BME280;33990;44.602;10.976;2023-02-17T00:48:44;102462.38;;;20.34;38.23
48200;BME280;33990;44.602;10.976;2023-02-17T00:51:12;102460.63;;;20.33;38.25
48200;BME280;33990;44.602;10.976;2023-02-17T00:53:40;102457.94;;;20.33;38.27
48200;BME280;33990;44.602;10.976;2023-02-17T00:56:07;102458.84;;;20.34;38.14
48200;BME280;33990;44.602;10.976;2023-02-17T00:58:35;102460.63;;;20.33;38.20
48200;BME280;33990;44.602;10.976;2023-02-17T01:01:03;102458.91;;;20.32;38.19
48200;BME280;33990;44.602;10.976;2023-02-17T01:03:31;102463.44;;;20.32;38.31
48200;BME280;33990;44.602;10.976;2023-02-17T01:05:58;102465.16;;;20.33;38.12
48200;BME280;33990;44.602;10.976;2023-02-17T01:08:26;102461.59;;;20.32;38.05
48200;BME280;33990;44.602;10.976;2023-02-17T01:10:53;102449.97;;;20.32;38.09
48200;BME280;33990;44.602;10.976;2023-02-17T01:13:20;102451.94;;;20.30;38.12
48200;BME280;33990;44.602;10.976;2023-02-17T01:15:50;102469.78;;;20.31;38.26
48200;BME280;33990;44.602;10.976;2023-02-17T01:18:21;102466.22;;;20.30;38.02
48200;BME280;33990;44.602;10.976;2023-02-17T01:20:50;102465.38;;;20.30;37.98
48200;BME280;33990;44.602;10.976;2023-02-17T01:23:18;102465.38;;;20.30;38.05
48200;BME280;33990;44.602;10.976;2023-02-17T01:25:46;102461.78;;;20.29;37.86
48200;BME280;33990;44.602;10.976;2023-02-17T01:28:19;102467.28;;;20.28;38.35
48200;BME280;33990;44.602;10.976;2023-02-17T01:30:47;102467.28;;;20.28;38.19
48200;BME280;33990;44.602;10.976;2023-02-17T01:33:15;102466.41;;;20.27;38.17
48200;BME280;33990;44.602;10.976;2023-02-17T01:35:44;102459.31;;;20.26;38.18
48200;BME280;33990;44.602;10.976;2023-02-17T01:38:11;102459.22;;;20.28;38.23
48200;BME280;33990;44.602;10.976;2023-02-17T01:40:46;102457.50;;;20.27;38.06
48200;BME280;33990;44.602;10.976;2023-02-17T01:43:16;102453.09;;;20.25;38.20
48200;BME280;33990;44.602;10.976;2023-02-17T01:45:51;102450.41;;;20.25;38.34
48200;BME280;33990;44.602;10.976;2023-02-17T01:48:23;102439.63;;;20.25;38.36
48200;BME280;33990;44.602;10.976;2023-02-17T01:51:03;102440.56;;;20.24;38.32
48200;BME280;33990;44.602;10.976;2023-02-17T01:53:39;102436.06;;;20.25;38.33
48200;BME280;33990;44.602;10.976;2023-02-17T01:56:09;102428.97;;;20.24;38.29
48200;BME280;33990;44.602;10.976;2023-02-17T01:58:39;102428.09;;;20.23;38.32
48200;BME280;33990;44.602;10.976;2023-02-17T02:01:08;102427.25;;;20.23;38.22
48200;BME280;33990;44.602;10.976;2023-02-17T02:03:37;102422.84;;;20.22;38.22
48200;BME280;33990;44.602;10.976;2023-02-17T02:06:15;102426.38;;;20.22;38.24
48200;BME280;33990;44.602;10.976;2023-02-17T02:08:52;102423.69;;;20.22;38.19
48200;BME280;33990;44.602;10.976;2023-02-17T02:11:21;102420.16;;;20.22;38.30
48200;BME280;33990;44.602;10.976;2023-02-17T02:13:50;102421.00;;;20.22;38.18
48200;BME280;33990;44.602;10.976;2023-02-17T02:24:10;102421.19;;;20.19;38.26
48200;BME280;33990;44.602;10.976;2023-02-17T02:27:00;102416.78;;;20.18;38.37
48200;BME280;33990;44.602;10.976;2023-02-17T02:30:08;102420.34;;;20.19;38.28
48200;BME280;33990;44.602;10.976;2023-02-17T02:32:48;102420.34;;;20.19;38.34
48200;BME280;33990;44.602;10.976;2023-02-17T02:35:38;102415.81;;;20.19;38.38
48200;BME280;33990;44.602;10.976;2023-02-17T02:38:38;102414.09;;;20.18;38.46
48200;BME280;33990;44.602;10.976;2023-02-17T02:41:41;102417.72;;;20.17;38.41
48200;BME280;33990;44.602;10.976;2023-02-17T02:44:04;102423.09;;;20.17;38.33
48200;BME280;33990;44.602;10.976;2023-02-17T02:46:32;102419.56;;;20.17;38.34
48200;BME280;33990;44.602;10.976;2023-02-17T02:49:00;102426.75;;;20.16;38.38
48200;BME280;33990;44.602;10.976;2023-02-17T02:57:13;102427.72;;;20.15;38.30
48200;BME280;33990;44.602;10.976;2023-02-17T02:59:39;102421.50;;;20.15;38.64
48200;BME280;33990;44.602;10.976;2023-02-17T03:02:34;102426.00;;;20.14;38.52
48200;BME280;33990;44.602;10.976;2023-02-17T03:08:01;102431.47;;;20.13;38.64
48200;BME280;33990;44.602;10.976;2023-02-17T03:10:30;102422.53;;;20.12;38.46
48200;BME280;33990;44.602;10.976;2023-02-17T03:12:57;102415.34;;;20.13;38.72
48200;BME280;33990;44.602;10.976;2023-02-17T03:15:31;102414.47;;;20.12;38.60
48200;BME280;33990;44.602;10.976;2023-02-17T03:18:01;102412.75;;;20.11;38.72
48200;BME280;33990;44.602;10.976;2023-02-17T03:20:32;102411.91;;;20.11;38.77
48200;BME280;33990;44.602;10.976;2023-02-17T03:23:04;102417.28;;;20.11;38.67
48200;BME280;33990;44.602;10.976;2023-02-17T03:25:32;102419.09;;;20.10;38.65
48200;BME280;33990;44.602;10.976;2023-02-17T03:28:00;102414.59;;;20.11;38.86
48200;BME280;33990;44.602;10.976;2023-02-17T03:30:27;102414.66;;;20.09;38.64
48200;BME280;33990;44.602;10.976;2023-02-17T03:32:55;102412.88;;;20.10;38.87
48200;BME280;33990;44.602;10.976;2023-02-17T03:35:25;102420.03;;;20.09;38.80
48200;BME280;33990;44.602;10.976;2023-02-17T03:37:52;102421.88;;;20.09;38.68
48200;BME280;33990;44.602;10.976;2023-02-17T03:40:19;102425.41;;;20.09;38.67
48200;BME280;33990;44.602;10.976;2023-02-17T03:42:46;102433.59;;;20.08;38.38
48200;BME280;33990;44.602;10.976;2023-02-17T03:45:14;102429.94;;;20.09;38.57
48200;BME280;33990;44.602;10.976;2023-02-17T03:47:41;102424.66;;;20.07;38.61
48200;BME280;33990;44.602;10.976;2023-02-17T03:50:09;102423.81;;;20.07;38.46
48200;BME280;33990;44.602;10.976;2023-02-17T03:52:36;102425.63;;;20.06;38.64
48200;BME280;33990;44.602;10.976;2023-02-17T03:55:04;102426.50;;;20.07;38.69
48200;BME280;33990;44.602;10.976;2023-02-17T03:57:31;102426.50;;;20.07;38.54
48200;BME280;33990;44.602;10.976;2023-02-17T04:00:00;102426.50;;;20.07;38.34
48200;BME280;33990;44.602;10.976;2023-02-17T04:02:28;102426.50;;;20.07;38.69
48200;BME280;33990;44.602;10.976;2023-02-17T04:04:55;102425.63;;;20.06;38.70
48200;BME280;33990;44.602;10.976;2023-02-17T04:07:22;102429.28;;;20.05;38.46
48200;BME280;33990;44.602;10.976;2023-02-17T04:09:50;102432.84;;;20.06;38.46
48200;BME280;33990;44.602;10.976;2023-02-17T04:12:17;102437.34;;;20.05;38.55
48200;BME280;33990;44.602;10.976;2023-02-17T04:14:44;102442.72;;;20.05;38.54
48200;BME280;33990;44.602;10.976;2023-02-17T04:17:12;102439.16;;;20.05;38.48
48200;BME280;33990;44.602;10.976;2023-02-17T04:19:39;102449.06;;;20.04;38.50
48200;BME280;33990;44.602;10.976;2023-02-17T04:22:06;102433.91;;;20.03;38.59
48200;BME280;33990;44.602;10.976;2023-02-17T04:24:35;102441.84;;;20.05;38.41
48200;BME280;33990;44.602;10.976;2023-02-17T04:27:04;102450.03;;;20.03;38.53
48200;BME280;33990;44.602;10.976;2023-02-17T04:29:32;102447.34;;;20.03;38.70
48200;BME280;33990;44.602;10.976;2023-02-17T04:31:59;102446.47;;;20.03;38.55
48200;BME280;33990;44.602;10.976;2023-02-17T04:34:27;102451.84;;;20.03;38.44
48200;BME280;33990;44.602;10.976;2023-02-17T04:36:54;102447.44;;;20.02;38.53
48200;BME280;33990;44.602;10.976;2023-02-17T04:39:22;102459.06;;;20.02;38.70
48200;BME280;33990;44.602;10.976;2023-02-17T04:41:49;102460.00;;;20.01;38.64
48200;BME280;33990;44.602;10.976;2023-02-17T04:44:16;102451.94;;;20.01;38.63
48200;BME280;33990;44.602;10.976;2023-02-17T04:46:44;102457.41;;;19.99;38.56
48200;BME280;33990;44.602;10.976;2023-02-17T04:49:11;102454.72;;;19.99;38.75
48200;BME280;33990;44.602;10.976;2023-02-17T04:51:38;102457.41;;;19.99;38.82
48200;BME280;33990;44.602;10.976;2023-02-17T04:54:05;102451.19;;;19.99;38.53
48200;BME280;33990;44.602;10.976;2023-02-17T04:56:33;102446.66;;;19.99;38.79
48200;BME280;33990;44.602;10.976;2023-02-17T04:59:00;102452.03;;;19.99;38.76
48200;BME280;33990;44.602;10.976;2023-02-17T05:01:27;102451.19;;;19.99;38.77
48200;BME280;33990;44.602;10.976;2023-02-17T05:03:55;102453.88;;;19.99;38.63
48200;BME280;33990;44.602;10.976;2023-02-17T05:06:22;102459.25;;;19.99;38.62
48200;BME280;33990;44.602;10.976;2023-02-17T05:08:49;102460.22;;;19.98;38.84
48200;BME280;33990;44.602;10.976;2023-02-17T05:11:16;102454.84;;;19.98;38.86
48200;BME280;33990;44.602;10.976;2023-02-17T05:13:44;102461.06;;;19.98;38.76
48200;BME280;33990;44.602;10.976;2023-02-17T05:16:11;102463.75;;;19.98;38.54
48200;BME280;33990;44.602;10.976;2023-02-17T05:18:39;102458.38;;;19.98;38.53
48200;BME280;33990;44.602;10.976;2023-02-17T05:21:06;102463.75;;;19.98;38.63
48200;BME280;33990;44.602;10.976;2023-02-17T05:23:33;102454.84;;;19.98;38.51
48200;BME280;33990;44.602;10.976;2023-02-17T05:26:07;102457.53;;;19.98;38.79
48200;BME280;33990;44.602;10.976;2023-02-17T05:28:35;102445.03;;;19.97;38.74
48200;BME280;33990;44.602;10.976;2023-02-17T05:31:03;102453.09;;;19.97;38.78
48200;BME280;33990;44.602;10.976;2023-02-17T05:33:31;102450.41;;;19.97;38.58
48200;BME280;33990;44.602;10.976;2023-02-17T05:36:03;102448.69;;;19.96;38.99
48200;BME280;33990;44.602;10.976;2023-02-17T05:38:32;102453.09;;;19.97;38.85
48200;BME280;33990;44.602;10.976;2023-02-17T05:40:59;102462.13;;;19.96;38.97
48200;BME280;33990;44.602;10.976;2023-02-17T05:43:26;102464.81;;;19.96;38.85
48200;BME280;33990;44.602;10.976;2023-02-17T05:45:54;102469.22;;;19.97;38.83
48200;BME280;33990;44.602;10.976;2023-02-17T05:48:21;102456.75;;;19.96;38.93
48200;BME280;33990;44.602;10.976;2023-02-17T05:50:48;102462.13;;;19.96;38.81
48200;BME280;33990;44.602;10.976;2023-02-17T05:53:16;102462.13;;;19.96;38.76
48200;BME280;33990;44.602;10.976;2023-02-17T05:55:43;102464.81;;;19.96;38.90
48200;BME280;33990;44.602;10.976;2023-02-17T05:58:10;102469.31;;;19.95;38.65
48200;BME280;33990;44.602;10.976;2023-02-17T06:00:38;102468.47;;;19.95;38.65
48200;BME280;33990;44.602;10.976;2023-02-17T06:03:06;102473.84;;;19.95;38.73
48200;BME280;33990;44.602;10.976;2023-02-17T06:05:33;102471.16;;;19.95;38.73
48200;BME280;33990;44.602;10.976;2023-02-17T06:08:00;102478.34;;;19.94;38.91
48200;BME280;33990;44.602;10.976;2023-02-17T06:10:28;102475.66;;;19.94;38.60
48200;BME280;33990;44.602;10.976;2023-02-17T06:12:55;102477.50;;;19.94;38.67
48200;BME280;33990;44.602;10.976;2023-02-17T06:15:23;102472.13;;;19.94;38.74
48200;BME280;33990;44.602;10.976;2023-02-17T06:17:50;102473.06;;;19.93;38.45
48200;BME280;33990;44.602;10.976;2023-02-17T06:20:17;102470.38;;;19.93;38.57
48200;BME280;33990;44.602;10.976;2023-02-17T06:22:45;102471.34;;;19.92;38.61
48200;BME280;33990;44.602;10.976;2023-02-17T06:25:12;102468.66;;;19.92;38.67
48200;BME280;33990;44.602;10.976;2023-02-17T06:27:39;102468.66;;;19.92;38.82
48200;BME280;33990;44.602;10.976;2023-02-17T06:30:09;102474.03;;;19.92;38.87
48200;BME280;33990;44.602;10.976;2023-02-17T06:32:37;102478.53;;;19.91;38.58
48200;BME280;33990;44.602;10.976;2023-02-17T06:35:04;102468.75;;;19.90;38.73
48200;BME280;33990;44.602;10.976;2023-02-17T06:37:32;102476.81;;;19.90;38.93
48200;BME280;33990;44.602;10.976;2023-02-17T06:39:59;102484.03;;;19.90;38.89
48200;BME280;33990;44.602;10.976;2023-02-17T06:42:26;102483.16;;;19.89;38.80
48200;BME280;33990;44.602;10.976;2023-02-17T06:44:54;102489.41;;;19.90;38.67
48200;BME280;33990;44.602;10.976;2023-02-17T06:47:21;102491.22;;;19.89;38.58
48200;BME280;33990;44.602;10.976;2023-02-17T06:49:48;102496.59;;;19.89;38.61
48200;BME280;33990;44.602;10.976;2023-02-17T06:52:16;102504.66;;;19.89;38.78
48200;BME280;33990;44.602;10.976;2023-02-17T06:54:43;102501.09;;;19.89;38.78
48200;BME280;33990;44.602;10.976;2023-02-17T06:57:13;102510.13;;;19.88;38.82
48200;BME280;33990;44.602;10.976;2023-02-17T06:59:40;102502.91;;;19.88;38.77
48200;BME280;33990;44.602;10.976;2023-02-17T07:02:10;102510.97;;;19.88;38.76
48200;BME280;33990;44.602;10.976;2023-02-17T07:04:41;102509.25;;;19.87;38.76
48200;BME280;33990;44.602;10.976;2023-02-17T07:07:09;102507.44;;;19.88;38.52
48200;BME280;33990;44.602;10.976;2023-02-17T07:09:37;102512.81;;;19.88;38.61
48200;BME280;33990;44.602;10.976;2023-02-17T07:12:05;102519.03;;;19.88;38.25
48200;BME280;33990;44.602;10.976;2023-02-17T07:14:33;102521.72;;;19.88;38.65
48200;BME280;33990;44.602;10.976;2023-02-17T07:17:01;102522.59;;;19.89;38.45
48200;BME280;33990;44.602;10.976;2023-02-17T07:19:28;102520.78;;;19.89;38.78
48200;BME280;33990;44.602;10.976;2023-02-17T07:21:56;102523.38;;;19.91;39.23
48200;BME280;33990;44.602;10.976;2023-02-17T07:24:23;102525.09;;;19.92;39.27
48200;BME280;33990;44.602;10.976;2023-02-17T07:26:51;102517.88;;;19.92;39.44
48200;BME280;33990;44.602;10.976;2023-02-17T07:29:22;102528.56;;;19.94;39.39
48200;BME280;33990;44.602;10.976;2023-02-17T07:31:49;102529.59;;;19.91;37.88
48200;BME280;33990;44.602;10.976;2023-02-17T07:34:16;102529.72;;;19.90;36.81
48200;BME280;33990;44.602;10.976;2023-02-17T07:36:43;102529.91;;;19.87;36.48
48200;BME280;33990;44.602;10.976;2023-02-17T07:39:11;102529.09;;;19.85;37.23
48200;BME280;33990;44.602;10.976;2023-02-17T07:41:38;102535.44;;;19.84;36.71
48200;BME280;33990;44.602;10.976;2023-02-17T07:44:08;102532.75;;;19.84;36.75
48200;BME280;33990;44.602;10.976;2023-02-17T07:46:36;102533.72;;;19.83;36.16
48200;BME280;33990;44.602;10.976;2023-02-17T07:49:05;102534.69;;;19.82;35.87
48200;BME280;33990;44.602;10.976;2023-02-17T07:51:33;102538.31;;;19.81;36.35
48200;BME280;33990;44.602;10.976;2023-02-17T07:54:00;102534.88;;;19.79;36.03
48200;BME280;33990;44.602;10.976;2023-02-17T07:56:29;102525.94;;;19.78;35.83
48200;BME280;33990;44.602;10.976;2023-02-17T07:58:56;102529.59;;;19.77;35.90
48200;BME280;33990;44.602;10.976;2023-02-17T08:01:24;102537.66;;;19.77;35.77
48200;BME280;33990;44.602;10.976;2023-02-17T08:03:52;102532.38;;;19.75;35.98
48200;BME280;33990;44.602;10.976;2023-02-17T08:06:24;102529.69;;;19.75;35.64
48200;BME280;33990;44.602;10.976;2023-02-17T08:08:53;102533.34;;;19.74;35.47
48200;BME280;33990;44.602;10.976;2023-02-17T08:11:39;102534.19;;;19.75;35.92
48200;BME280;33990;44.602;10.976;2023-02-17T08:14:28;102534.19;;;19.75;35.92
48200;BME280;33990;44.602;10.976;2023-02-17T08:16:55;102534.19;;;19.75;36.07
48200;BME280;33990;44.602;10.976;2023-02-17T08:19:23;102531.50;;;19.75;36.02
48200;BME280;33990;44.602;10.976;2023-02-17T08:21:55;102531.50;;;19.75;36.26
48200;BME280;33990;44.602;10.976;2023-02-17T08:24:23;102530.53;;;19.76;36.22
48200;BME280;33990;44.602;10.976;2023-02-17T08:26:50;102531.50;;;19.75;35.88
48200;BME280;33990;44.602;10.976;2023-02-17T08:29:18;102529.69;;;19.75;35.92
48200;BME280;33990;44.602;10.976;2023-02-17T08:31:51;102539.47;;;19.76;35.93
48200;BME280;33990;44.602;10.976;2023-02-17T08:34:18;102529.59;;;19.77;35.96
48200;BME280;33990;44.602;10.976;2023-02-17T08:36:46;102535.72;;;19.79;36.00
48200;BME280;33990;44.602;10.976;2023-02-17T08:39:16;102537.47;;;19.80;36.19
48200;BME280;33990;44.602;10.976;2023-02-17T08:41:44;102532.09;;;19.80;36.29
48200;BME280;33990;44.602;10.976;2023-02-17T08:44:15;102537.28;;;19.83;36.20
48200;BME280;33990;44.602;10.976;2023-02-17T08:46:44;102535.44;;;19.84;36.38
48200;BME280;33990;44.602;10.976;2023-02-17T08:49:16;102532.69;;;19.85;36.62
48200;BME280;33990;44.602;10.976;2023-02-17T08:51:44;102533.44;;;19.87;37.11
48200;BME280;33990;44.602;10.976;2023-02-17T08:54:12;102529.72;;;19.90;37.28
48200;BME280;33990;44.602;10.976;2023-02-17T08:56:40;102529.59;;;19.91;37.37
48200;BME280;33990;44.602;10.976;2023-02-17T08:59:09;102528.56;;;19.94;37.36
48200;BME280;33990;44.602;10.976;2023-02-17T09:01:38;102532.00;;;19.96;37.64
48200;BME280;33990;44.602;10.976;2023-02-17T09:04:07;102531.94;;;19.97;37.58
48200;BME280;33990;44.602;10.976;2023-02-17T09:06:38;102536.34;;;19.98;37.39
48200;BME280;33990;44.602;10.976;2023-02-17T09:09:08;102531.81;;;19.99;37.48
48200;BME280;33990;44.602;10.976;2023-02-17T09:11:36;102536.22;;;20.00;37.10
48200;BME280;33990;44.602;10.976;2023-02-17T09:14:05;102530.97;;;19.98;37.04
48200;BME280;33990;44.602;10.976;2023-02-17T09:16:33;102523.75;;;19.99;37.39
48200;BME280;33990;44.602;10.976;2023-02-17T09:19:00;102524.72;;;19.98;37.44
48200;BME280;33990;44.602;10.976;2023-02-17T09:21:27;102536.22;;;20.00;37.63
48200;BME280;33990;44.602;10.976;2023-02-17T09:23:55;102529.88;;;20.01;37.67
48200;BME280;33990;44.602;10.976;2023-02-17T09:26:22;102527.19;;;20.01;37.61
48200;BME280;33990;44.602;10.976;2023-02-17T09:28:50;102525.59;;;19.98;36.86
48200;BME280;33990;44.602;10.976;2023-02-17T09:31:22;102538.47;;;19.93;36.39
48200;BME280;33990;44.602;10.976;2023-02-17T09:33:50;102531.44;;;19.91;36.34
48200;BME280;33990;44.602;10.976;2023-02-17T09:36:21;102533.34;;;19.89;36.35
48200;BME280;33990;44.602;10.976;2023-02-17T09:38:49;102539.00;;;19.84;36.49
48200;BME280;33990;44.602;10.976;2023-02-17T09:41:21;102536.59;;;19.80;36.71
48200;BME280;33990;44.602;10.976;2023-02-17T09:43:50;102543.22;;;19.74;36.91
48200;BME280;33990;44.602;10.976;2023-02-17T09:46:39;102544.44;;;19.68;36.99
48200;BME280;33990;44.602;10.976;2023-02-17T09:49:31;102540.13;;;19.66;37.19
48200;BME280;33990;44.602;10.976;2023-02-17T09:52:23;102533.97;;;19.64;37.13
48200;BME280;33990;44.602;10.976;2023-02-17T09:54:59;102539.44;;;19.62;37.14
48200;BME280;33990;44.602;10.976;2023-02-17T09:57:35;102543.69;;;19.66;38.32
48200;BME280;33990;44.602;10.976;2023-02-17T10:00:12;102535.34;;;19.71;38.35
48200;BME280;33990;44.602;10.976;2023-02-17T10:02:46;102544.94;;;19.75;38.40
48200;BME280;33990;44.602;10.976;2023-02-17T10:05:20;102541.97;;;19.80;38.40
48200;BME280;33990;44.602;10.976;2023-02-17T10:10:30;102547.91;;;19.85;37.97
48200;BME280;33990;44.602;10.976;2023-02-17T10:13:02;102546.88;;;19.87;38.15
48200;BME280;33990;44.602;10.976;2023-02-17T10:15:38;102549.56;;;19.87;38.02
48200;BME280;33990;44.602;10.976;2023-02-17T10:18:25;102549.38;;;19.90;38.30
48200;BME280;33990;44.602;10.976;2023-02-17T10:21:01;102546.53;;;19.93;38.28
48200;BME280;33990;44.602;10.976;2023-02-17T10:23:31;102552.66;;;19.95;38.83
48200;BME280;33990;44.602;10.976;2023-02-17T10:28:51;102540.66;;;20.01;38.74
48200;BME280;33990;44.602;10.976;2023-02-17T10:34:37;102536.72;;;20.07;39.07
48200;BME280;33990;44.602;10.976;2023-02-17T10:39:52;102543.72;;;20.09;38.70
48200;BME280;33990;44.602;10.976;2023-02-17T10:45:03;102531.06;;;20.11;38.95
48200;BME280;33990;44.602;10.976;2023-02-17T10:47:34;102536.34;;;20.13;39.28
48200;BME280;33990;44.602;10.976;2023-02-17T10:50:05;102537.19;;;20.13;40.00
48200;BME280;33990;44.602;10.976;2023-02-17T10:52:40;102530.88;;;20.14;40.05
48200;BME280;33990;44.602;10.976;2023-02-17T10:55:17;102526.44;;;20.13;41.21
48200;BME280;33990;44.602;10.976;2023-02-17T10:57:54;102522.88;;;20.13;42.24
48200;BME280;33990;44.602;10.976;2023-02-17T11:00:24;102515.78;;;20.12;42.05
48200;BME280;33990;44.602;10.976;2023-02-17T11:02:53;102522.13;;;20.11;45.34
48200;BME280;33990;44.602;10.976;2023-02-17T11:05:32;102524.03;;;20.09;41.00
48200;BME280;33990;44.602;10.976;2023-02-17T11:11:01;102515.03;;;20.10;42.57
48200;BME280;33990;44.602;10.976;2023-02-17T11:13:39;102508.69;;;20.11;44.04
48200;BME280;33990;44.602;10.976;2023-02-17T11:16:21;102509.75;;;20.08;39.02
48200;BME280;33990;44.602;10.976;2023-02-17T11:18:52;102495.91;;;20.00;38.60
48200;BME280;33990;44.602;10.976;2023-02-17T11:21:20;102492.38;;;19.99;41.09
48200;BME280;33990;44.602;10.976;2023-02-17T11:23:55;102492.25;;;20.01;43.06
48200;BME280;33990;44.602;10.976;2023-02-17T11:26:26;102492.25;;;20.01;40.09
48200;BME280;33990;44.602;10.976;2023-02-17T11:29:06;102494.19;;;19.99;37.79
48200;BME280;33990;44.602;10.976;2023-02-17T11:31:34;102490.81;;;19.95;38.49
48200;BME280;33990;44.602;10.976;2023-02-17T11:34:13;102487.16;;;19.96;41.15
48200;BME280;33990;44.602;10.976;2023-02-17T11:36:43;102487.09;;;19.98;42.47
48200;BME280;33990;44.602;10.976;2023-02-17T11:39:19;102484.28;;;19.99;43.16
48200;BME280;33990;44.602;10.976;2023-02-17T11:41:47;102480.63;;;20.00;44.80
48200;BME280;33990;44.602;10.976;2023-02-17T11:44:22;102475.19;;;20.02;45.38
48200;BME280;33990;44.602;10.976;2023-02-17T11:46:58;102471.53;;;20.03;45.75
48200;BME280;33990;44.602;10.976;2023-02-17T11:49:56;102467.97;;;20.03;46.84
48200;BME280;33990;44.602;10.976;2023-02-17T11:52:52;102456.38;;;20.02;46.76
48200;BME280;33990;44.602;10.976;2023-02-17T11:55:36;102450.78;;;20.05;46.76
48200;BME280;33990;44.602;10.976;2023-02-17T12:09:32;102430.34;;;20.03;49.41
48200;BME280;33990;44.602;10.976;2023-02-17T12:18:02;102417.19;;;19.98;44.59
48200;BME280;33990;44.602;10.976;2023-02-17T12:23:34;102415.59;;;19.81;40.23
48200;BME280;33990;44.602;10.976;2023-02-17T12:26:14;102415.09;;;19.74;39.22
48200;BME280;33990;44.602;10.976;2023-02-17T12:35:09;102395.22;;;19.63;41.43
48200;BME280;33990;44.602;10.976;2023-02-17T12:40:38;102396.59;;;19.70;45.94
48200;BME280;33990;44.602;10.976;2023-02-17T12:43:28;102389.19;;;19.73;46.72
48200;BME280;33990;44.602;10.976;2023-02-17T12:45:59;102381.88;;;19.75;46.77
48200;BME280;33990;44.602;10.976;2023-02-17T12:51:11;102375.34;;;19.80;46.74
48200;BME280;33990;44.602;10.976;2023-02-17T12:53:50;102375.16;;;19.83;47.19
48200;BME280;33990;44.602;10.976;2023-02-17T12:58:57;102367.00;;;19.84;46.91
48200;BME280;33990;44.602;10.976;2023-02-17T13:01:30;102364.22;;;19.86;47.01
48200;BME280;33990;44.602;10.976;2023-02-17T13:03:58;102361.31;;;19.89;46.47
48200;BME280;33990;44.602;10.976;2023-02-17T13:06:36;102361.25;;;19.90;46.92
48200;BME280;33990;44.602;10.976;2023-02-17T13:09:33;102353.84;;;19.94;47.25
48200;BME280;33990;44.602;10.976;2023-02-17T13:14:47;102353.63;;;19.97;47.50
48200;BME280;33990;44.602;10.976;2023-02-17T13:17:24;102353.53;;;19.98;47.71
48200;BME280;33990;44.602;10.976;2023-02-17T13:22:40;102343.47;;;20.02;47.49
48200;BME280;33990;44.602;10.976;2023-02-17T13:25:32;102338.94;;;20.03;47.75
48200;BME280;33990;44.602;10.976;2023-02-17T13:28:18;102336.16;;;20.04;47.60
48200;BME280;33990;44.602;10.976;2023-02-17T13:31:25;102332.47;;;20.05;46.41
48200;BME280;33990;44.602;10.976;2023-02-17T13:33:56;102333.38;;;20.06;47.23
48200;BME280;33990;44.602;10.976;2023-02-17T13:38:58;102329.59;;;20.08;47.52
48200;BME280;33990;44.602;10.976;2023-02-17T13:41:32;102331.31;;;20.09;47.36
48200;BME280;33990;44.602;10.976;2023-02-17T13:44:23;102325.00;;;20.10;47.00
48200;BME280;33990;44.602;10.976;2023-02-17T13:46:53;102318.66;;;20.11;46.88
48200;BME280;33990;44.602;10.976;2023-02-17T13:49:25;102323.06;;;20.12;46.85
48200;BME280;33990;44.602;10.976;2023-02-17T13:51:53;102318.53;;;20.13;47.12
48200;BME280;33990;44.602;10.976;2023-02-17T13:54:21;102322.97;;;20.14;46.84
48200;BME280;33990;44.602;10.976;2023-02-17T13:56:51;102322.00;;;20.15;46.61
48200;BME280;33990;44.602;10.976;2023-02-17T13:59:25;102308.56;;;20.15;46.54
48200;BME280;33990;44.602;10.976;2023-02-17T14:01:53;102314.91;;;20.14;43.55
48200;BME280;33990;44.602;10.976;2023-02-17T14:04:29;102307.13;;;20.09;42.96
48200;BME280;33990;44.602;10.976;2023-02-17T14:06:59;102307.13;;;20.09;44.43
48200;BME280;33990;44.602;10.976;2023-02-17T14:09:32;102307.13;;;20.09;45.06
48200;BME280;33990;44.602;10.976;2023-02-17T14:12:01;102309.81;;;20.09;45.52
48200;BME280;33990;44.602;10.976;2023-02-17T14:14:32;102306.06;;;20.12;46.09
48200;BME280;33990;44.602;10.976;2023-02-17T14:17:05;102301.56;;;20.12;45.92